createdAt,value
2022-10-17T00:07:23.265Z,2.8
2022-10-17T00:22:33.246Z,3.3
2022-10-17T00:37:42.695Z,3.1
2022-10-17T00:52:51.850Z,2.9
2022-10-17T01:08:01.044Z,3.2
2022-10-17T01:23:10.742Z,3.1
2022-10-17T01:38:22.359Z,3.6
2022-10-17T01:53:31.945Z,3.3
2022-10-17T02:08:41.574Z,3.9
2022-10-17T02:23:51.253Z,3.7
2022-10-17T02:39:01.097Z,3.4
2022-10-17T02:54:09.875Z,4.5
2022-10-17T03:09:19.455Z,3.9
2022-10-17T03:24:28.969Z,3.4
2022-10-17T03:39:38.561Z,4.1
2022-10-17T03:54:48.198Z,4
2022-10-17T04:09:57.647Z,4.2
2022-10-17T04:25:08.030Z,4.6
2022-10-17T04:40:17.340Z,4.7
2022-10-17T04:55:26.454Z,4.3
2022-10-17T05:10:35.886Z,4.1
2022-10-17T05:25:45.070Z,4.5
2022-10-17T05:40:54.523Z,4.8
2022-10-17T05:56:04.473Z,4.8
2022-10-17T06:11:13.787Z,4.8
2022-10-17T06:26:23.681Z,4.2
2022-10-17T06:41:33.130Z,4.4
2022-10-17T06:56:42.765Z,4
2022-10-17T07:11:52.290Z,4.5
2022-10-17T07:27:02.114Z,5
2022-10-17T07:42:11.890Z,4.2
2022-10-17T07:57:23.375Z,4.5
2022-10-17T08:12:33.344Z,3.9
2022-10-17T08:27:43.001Z,6
2022-10-17T08:42:52.925Z,5
2022-10-17T08:58:02.997Z,4
2022-10-17T09:13:12.959Z,4
2022-10-17T09:28:24.535Z,4.3
2022-10-17T09:43:34.684Z,3.9
2022-10-17T09:58:44.728Z,4
2022-10-17T10:13:55.402Z,4.1
2022-10-17T10:29:05.684Z,3.9
2022-10-17T10:44:16.126Z,4
2022-10-17T10:59:25.977Z,3.8
2022-10-17T11:14:35.503Z,3.9
2022-10-17T11:29:44.641Z,4.2
2022-10-17T11:44:54.547Z,3.1
2022-10-17T12:00:04.407Z,3.3
2022-10-17T12:15:14.554Z,3.4
2022-10-17T12:30:24.338Z,3
2022-10-17T12:45:34.175Z,3.3
2022-10-17T13:01:12.045Z,3.6
2022-10-17T13:16:35.386Z,3.7
2022-10-17T13:31:46.131Z,3.8
2022-10-17T13:46:55.293Z,3.9
2022-10-17T14:02:04.638Z,4
2022-10-17T14:17:13.917Z,4.5
2022-10-17T14:32:24.094Z,4.4
2022-10-17T14:47:50.095Z,5.3
2022-10-17T15:03:01.398Z,5
2022-10-17T15:18:10.840Z,5.4
2022-10-17T15:33:20.160Z,4.6
2022-10-17T15:48:30.507Z,5.6
2022-10-17T16:03:39.516Z,5.1
2022-10-17T16:18:49.188Z,4.9
2022-10-17T16:33:59.068Z,6.4
2022-10-17T16:49:08.231Z,5.8
2022-10-17T17:04:17.722Z,5.7
2022-10-17T17:19:26.861Z,5.1
2022-10-17T17:34:36.322Z,5.6
2022-10-17T17:49:45.934Z,8.3
2022-10-17T18:04:55.382Z,8
2022-10-17T18:20:04.384Z,7.9
2022-10-17T18:35:13.952Z,7.3
2022-10-17T18:50:23.957Z,6.9
2022-10-17T19:05:33.276Z,7.2
2022-10-17T19:20:42.619Z,9.1
2022-10-17T19:35:51.762Z,7.9
2022-10-17T19:51:00.935Z,7.9
2022-10-17T20:06:10.181Z,8
2022-10-17T20:21:19.769Z,8.4
2022-10-17T20:36:29.573Z,8
2022-10-17T20:51:39.397Z,7.8
2022-10-17T21:06:48.815Z,7.7
2022-10-17T21:21:58.012Z,7.9
2022-10-17T21:37:07.386Z,9.2
2022-10-17T21:52:17.091Z,10.3
2022-10-17T22:07:26.511Z,9.2
2022-10-17T22:22:35.730Z,10.8
2022-10-17T22:37:45.415Z,11.6
2022-10-17T22:52:55.033Z,11.8
2022-10-17T23:08:05.234Z,11.1
2022-10-17T23:23:15.295Z,11.2
2022-10-17T23:38:24.916Z,13.9
2022-10-17T23:53:34.581Z,13.9
